createdAt,value
2019-02-07T00:00:23.231Z,58.80
2019-02-07T00:03:12.372Z,58.60
2019-02-07T00:06:02.089Z,69.55
2019-02-07T00:08:51.257Z,62.10
2019-02-07T00:11:39.960Z,67.40
2019-02-07T00:14:39.469Z,67.97
2019-02-07T00:17:20.991Z,63.42
2019-02-07T00:20:20.167Z,62.03
2019-02-07T00:23:09.124Z,60.28
2019-02-07T00:25:58.772Z,65.20
2019-02-07T00:28:48.020Z,72.32
2019-02-07T00:31:37.925Z,58.00
2019-02-07T00:34:27.181Z,62.23
2019-02-07T00:37:16.407Z,51.50
2019-02-07T00:40:09.906Z,51.77
2019-02-07T00:42:58.946Z,57.67
2019-02-07T00:45:48.138Z,52.67
2019-02-07T00:48:37.304Z,53.13
2019-02-07T00:51:26.749Z,53.20
2019-02-07T00:54:15.639Z,53.05
2019-02-07T00:57:05.594Z,55.70
2019-02-07T00:59:55.106Z,47.20
2019-02-07T01:02:44.097Z,51.23
2019-02-07T01:05:32.930Z,45.67
2019-02-07T01:08:22.564Z,43.15
2019-02-07T01:11:11.867Z,44.10
2019-02-07T01:14:01.347Z,45.05
2019-02-07T01:16:50.397Z,42.67
2019-02-07T01:19:40.293Z,41.23
2019-02-07T01:22:29.636Z,39.13
2019-02-07T01:25:22.145Z,41.90
2019-02-07T01:28:11.249Z,38.88
2019-02-07T01:31:00.960Z,41.70
2019-02-07T01:33:49.836Z,39.40
2019-02-07T01:36:39.065Z,41.13
2019-02-07T01:39:28.351Z,40.40
2019-02-07T01:42:17.492Z,41.42
2019-02-07T01:45:13.325Z,44.08
2019-02-07T01:48:03.219Z,41.58
2019-02-07T01:50:52.907Z,41.75
2019-02-07T01:53:41.796Z,39.90
2019-02-07T01:56:31.135Z,43.40
2019-02-07T01:59:20.508Z,39.00
2019-02-07T02:02:09.714Z,40.08
2019-02-07T02:04:58.742Z,44.80
2019-02-07T02:07:49.153Z,40.75
2019-02-07T02:10:38.914Z,40.83
2019-02-07T02:13:27.924Z,37.88
2019-02-07T02:16:17.450Z,41.02
2019-02-07T02:19:06.928Z,44.05
2019-02-07T02:21:56.119Z,43.52
2019-02-07T02:24:45.401Z,36.35
2019-02-07T02:27:35.224Z,42.40
2019-02-07T02:30:36.091Z,44.33
2019-02-07T02:33:25.678Z,36.90
2019-02-07T02:36:14.574Z,44.15
2019-02-07T02:39:04.470Z,42.95
2019-02-07T02:41:53.984Z,47.38
2019-02-07T02:44:43.357Z,38.05
2019-02-07T02:47:32.126Z,39.18
2019-02-07T02:50:22.690Z,39.67
2019-02-07T02:53:12.418Z,38.37
2019-02-07T02:56:01.461Z,40.40
2019-02-07T02:58:50.793Z,41.58
2019-02-07T03:01:44.248Z,39.90
2019-02-07T03:04:50.570Z,38.98
2019-02-07T03:07:46.361Z,40.92
2019-02-07T03:10:41.176Z,47.20
2019-02-07T03:13:49.965Z,36.28
2019-02-07T03:16:41.246Z,40.10
2019-02-07T03:19:38.034Z,42.15
2019-02-07T03:22:37.182Z,43.08
2019-02-07T03:25:27.779Z,38.02
2019-02-07T03:28:34.157Z,37.83
2019-02-07T03:31:40.831Z,45.63
2019-02-07T03:34:33.788Z,37.23
2019-02-07T03:37:24.281Z,41.58
2019-02-07T03:40:20.823Z,39.63
2019-02-07T03:43:17.584Z,36.40
2019-02-07T03:46:12.879Z,35.25
2019-02-07T03:49:06.790Z,40.28
2019-02-07T03:51:58.087Z,40.60
2019-02-07T03:54:48.836Z,36.17
2019-02-07T03:57:48.594Z,36.60
2019-02-07T04:00:48.635Z,35.13
2019-02-07T04:03:51.788Z,38.23
2019-02-07T04:06:51.466Z,35.78
2019-02-07T04:09:41.681Z,36.70
2019-02-07T04:12:49.214Z,38.23
2019-02-07T04:15:42.651Z,35.30
2019-02-07T04:18:33.110Z,36.03
2019-02-07T04:21:23.787Z,40.38
2019-02-07T04:24:31.910Z,37.08
2019-02-07T04:27:40.987Z,36.88
2019-02-07T04:30:32.041Z,35.03
2019-02-07T04:33:38.620Z,37.20
2019-02-07T04:36:32.282Z,34.05
2019-02-07T04:39:22.514Z,33.02
2019-02-07T04:42:22.607Z,36.53
2019-02-07T04:45:17.661Z,35.15
2019-02-07T04:48:08.874Z,30.52
2019-02-07T04:51:14.078Z,32.10
2019-02-07T04:54:07.585Z,34.00
2019-02-07T04:56:58.527Z,29.00
2019-02-07T04:59:49.262Z,28.45
2019-02-07T05:02:52.422Z,32.13
2019-02-07T05:05:48.454Z,28.77
2019-02-07T05:08:48.410Z,29.40
2019-02-07T05:11:44.961Z,33.25
2019-02-07T05:14:41.542Z,30.52
2019-02-07T05:17:35.460Z,27.40
2019-02-07T05:20:28.913Z,32.55
2019-02-07T05:23:38.453Z,27.95
2019-02-07T05:26:32.284Z,32.93
2019-02-07T05:29:23.017Z,28.87
2019-02-07T05:32:14.255Z,27.13
2019-02-07T05:35:05.578Z,29.40
2019-02-07T05:38:12.352Z,28.38
2019-02-07T05:41:09.502Z,27.40
2019-02-07T05:44:15.529Z,23.40
2019-02-07T05:47:09.535Z,27.58
2019-02-07T05:50:02.403Z,25.62
2019-02-07T05:53:09.594Z,32.15
2019-02-07T05:56:03.170Z,23.95
2019-02-07T05:59:00.738Z,27.48
2019-02-07T06:01:51.287Z,26.75
2019-02-07T06:04:42.471Z,27.20
2019-02-07T06:07:48.676Z,23.60
2019-02-07T06:10:50.884Z,26.00
2019-02-07T06:13:58.267Z,24.82
2019-02-07T06:17:04.841Z,25.05
2019-02-07T06:20:01.253Z,23.65
2019-02-07T06:22:54.363Z,29.00
2019-02-07T06:25:50.804Z,28.87
2019-02-07T06:28:47.537Z,28.57
2019-02-07T06:31:46.471Z,28.38
2019-02-07T06:34:52.776Z,23.07
2019-02-07T06:37:58.174Z,25.45
2019-02-07T06:41:05.528Z,26.90
2019-02-07T06:43:58.858Z,21.17
2019-02-07T06:46:49.733Z,21.10
2019-02-07T06:49:54.877Z,24.87
2019-02-07T06:52:45.250Z,22.10
2019-02-07T06:55:42.019Z,21.65
2019-02-07T06:58:38.772Z,21.60
2019-02-07T07:01:29.310Z,21.33
2019-02-07T07:04:32.050Z,23.07
2019-02-07T07:07:22.893Z,23.80
2019-02-07T07:10:31.248Z,23.55
2019-02-07T07:13:22.002Z,24.90
2019-02-07T07:16:13.170Z,20.43
2019-02-07T07:19:08.957Z,24.70
2019-02-07T07:22:13.192Z,23.30
2019-02-07T07:25:04.162Z,24.95
2019-02-07T07:28:11.117Z,20.70
2019-02-07T07:31:17.625Z,22.80
2019-02-07T07:34:15.293Z,22.87
2019-02-07T07:37:21.499Z,21.90
2019-02-07T07:40:21.324Z,20.43
2019-02-07T07:43:18.981Z,22.73
2019-02-07T07:46:26.015Z,22.02
2019-02-07T07:49:25.775Z,23.05
2019-02-07T07:52:25.500Z,21.50
2019-02-07T07:55:31.073Z,21.97
2019-02-07T07:58:22.366Z,29.02
2019-02-07T08:01:18.903Z,22.80
2019-02-07T08:04:09.737Z,23.73
2019-02-07T08:07:02.647Z,21.00
2019-02-07T08:09:56.337Z,23.75
2019-02-07T08:12:50.132Z,25.55
2019-02-07T08:15:44.002Z,20.75
2019-02-07T08:18:37.433Z,28.80
2019-02-07T08:21:36.763Z,22.80
2019-02-07T08:24:27.180Z,24.00
2019-02-07T08:27:15.829Z,19.35
2019-02-07T08:30:12.221Z,20.77
2019-02-07T08:33:12.028Z,19.98
2019-02-07T08:36:10.553Z,26.75
2019-02-07T08:39:13.412Z,21.23
2019-02-07T08:42:20.462Z,18.70
2019-02-07T08:45:15.996Z,19.10
2019-02-07T08:48:14.938Z,20.25
2019-02-07T08:51:14.409Z,17.25
2019-02-07T08:54:14.954Z,20.50
2019-02-07T08:57:06.094Z,27.32
2019-02-07T08:59:56.939Z,20.70
2019-02-07T09:02:51.733Z,21.33
2019-02-07T09:05:57.756Z,29.18
2019-02-07T09:09:04.539Z,26.87
2019-02-07T09:12:10.198Z,24.63
2019-02-07T09:15:16.670Z,21.50
2019-02-07T09:18:16.867Z,25.43
2019-02-07T09:21:19.027Z,25.02
2019-02-07T09:24:27.250Z,24.72
2019-02-07T09:27:29.611Z,23.62
2019-02-07T09:30:23.953Z,24.63
2019-02-07T09:33:14.987Z,25.12
2019-02-07T09:36:06.243Z,18.87
2019-02-07T09:39:02.607Z,22.13
2019-02-07T09:42:03.043Z,20.85
2019-02-07T09:44:54.151Z,22.22
2019-02-07T09:48:01.647Z,28.52
2019-02-07T09:50:57.711Z,21.07
2019-02-07T09:54:00.565Z,21.85
2019-02-07T09:56:49.324Z,23.25
2019-02-07T09:59:56.026Z,21.80
2019-02-07T10:02:46.383Z,21.85
2019-02-07T10:05:35.600Z,22.25
2019-02-07T10:08:26.850Z,29.48
2019-02-07T10:11:17.453Z,23.15
2019-02-07T10:14:08.472Z,23.65
2019-02-07T10:16:59.141Z,21.42
2019-02-07T10:20:08.016Z,25.10
2019-02-07T10:23:15.214Z,19.87
2019-02-07T10:26:24.624Z,20.23
2019-02-07T10:29:17.894Z,21.48
2019-02-07T10:32:16.329Z,24.70
2019-02-07T10:35:22.760Z,19.40
2019-02-07T10:38:20.456Z,20.68
2019-02-07T10:41:11.403Z,20.15
2019-02-07T10:44:18.126Z,21.70
2019-02-07T10:47:26.555Z,23.38
2019-02-07T10:50:35.962Z,20.20
2019-02-07T10:53:32.734Z,22.17
2019-02-07T10:56:35.318Z,24.12
2019-02-07T10:59:28.876Z,20.62
2019-02-07T11:02:29.121Z,19.27
2019-02-07T11:05:38.871Z,21.05
2019-02-07T11:08:30.490Z,20.15
2019-02-07T11:11:32.629Z,24.80
2019-02-07T11:14:30.810Z,21.05
2019-02-07T11:17:34.031Z,22.02
2019-02-07T11:20:27.929Z,24.32
2019-02-07T11:23:33.454Z,19.52
2019-02-07T11:26:23.748Z,21.62
2019-02-07T11:29:13.022Z,24.20
2019-02-07T11:32:05.376Z,21.37
2019-02-07T11:35:12.320Z,21.25
2019-02-07T11:38:02.601Z,19.48
2019-02-07T11:40:53.215Z,25.45
2019-02-07T11:43:43.839Z,23.47
2019-02-07T11:46:40.357Z,19.92
2019-02-07T11:49:31.315Z,21.02
2019-02-07T11:52:22.920Z,23.27
2019-02-07T11:55:30.101Z,24.65
2019-02-07T11:58:37.231Z,26.68
2019-02-07T12:01:35.723Z,26.17
2019-02-07T12:04:26.370Z,26.42
2019-02-07T12:07:18.106Z,22.42
2019-02-07T12:10:13.213Z,20.92
2019-02-07T12:13:07.655Z,24.12
2019-02-07T12:16:01.145Z,19.02
2019-02-07T12:18:51.935Z,21.93
2019-02-07T12:21:43.407Z,20.27
2019-02-07T12:24:49.032Z,20.57
2019-02-07T12:27:40.263Z,17.20
2019-02-07T12:30:36.293Z,20.10
2019-02-07T12:33:27.302Z,15.95
2019-02-07T12:36:30.388Z,15.45
2019-02-07T12:39:37.376Z,15.78
2019-02-07T12:42:27.879Z,15.90
2019-02-07T12:45:19.308Z,16.37
2019-02-07T12:48:10.612Z,28.83
2019-02-07T12:51:01.386Z,20.65
2019-02-07T12:53:51.918Z,16.82
2019-02-07T12:56:42.291Z,18.35
2019-02-07T12:59:51.981Z,19.17
2019-02-07T13:02:57.926Z,23.73
2019-02-07T13:06:04.927Z,19.37
2019-02-07T13:09:10.828Z,14.30
2019-02-07T13:12:13.978Z,12.55
2019-02-07T13:15:05.172Z,16.97
2019-02-07T13:18:01.423Z,16.55
2019-02-07T13:21:08.390Z,14.98
2019-02-07T13:24:02.105Z,18.80
2019-02-07T13:27:09.102Z,15.75
2019-02-07T13:29:59.781Z,16.90
2019-02-07T13:32:56.393Z,20.17
2019-02-07T13:36:05.647Z,12.98
2019-02-07T13:39:07.735Z,12.47
2019-02-07T13:42:07.481Z,18.15
2019-02-07T13:45:07.400Z,17.85
2019-02-07T13:48:06.886Z,13.72
2019-02-07T13:51:15.467Z,14.50
2019-02-07T13:54:18.459Z,11.48
2019-02-07T13:57:25.610Z,7.42
2019-02-07T14:00:19.876Z,10.10
2019-02-07T14:03:15.837Z,10.20
2019-02-07T14:06:12.304Z,11.65
2019-02-07T14:09:11.963Z,11.83
2019-02-07T14:12:02.959Z,8.75
2019-02-07T14:15:02.547Z,12.85
2019-02-07T14:17:53.324Z,14.73
2019-02-07T14:20:50.283Z,12.28
2019-02-07T14:23:41.324Z,8.73
2019-02-07T14:26:31.689Z,8.28
2019-02-07T14:29:34.389Z,11.78
2019-02-07T14:32:25.082Z,13.80
2019-02-07T14:35:22.754Z,11.80
2019-02-07T14:38:32.850Z,14.80
2019-02-07T14:41:23.621Z,15.38
2019-02-07T14:44:14.765Z,12.63
2019-02-07T14:47:04.193Z,9.70
2019-02-07T14:49:53.258Z,19.05
2019-02-07T14:52:42.944Z,10.78
2019-02-07T14:55:31.887Z,18.67
2019-02-07T14:58:20.865Z,10.58
2019-02-07T15:01:09.945Z,11.75
2019-02-07T15:03:58.696Z,16.07
2019-02-07T15:06:48.064Z,14.28
2019-02-07T15:09:37.710Z,17.90
2019-02-07T15:12:27.208Z,15.32
2019-02-07T15:15:20.785Z,17.32
2019-02-07T15:18:09.978Z,12.47
2019-02-07T15:20:59.548Z,16.20
2019-02-07T15:23:48.794Z,13.83
2019-02-07T15:26:37.858Z,11.22
2019-02-07T15:29:26.974Z,16.70
2019-02-07T15:32:16.600Z,13.45
2019-02-07T15:35:10.258Z,13.68
2019-02-07T15:37:59.539Z,17.80
2019-02-07T15:40:49.118Z,18.55
2019-02-07T15:43:38.639Z,16.35
2019-02-07T15:46:27.848Z,14.87
2019-02-07T15:49:17.337Z,22.48
2019-02-07T15:52:07.254Z,8.90
2019-02-07T15:54:56.721Z,21.37
2019-02-07T15:57:46.270Z,16.00
2019-02-07T16:00:37.559Z,21.68
2019-02-07T16:03:36.757Z,9.70
2019-02-07T16:06:31.418Z,18.62
2019-02-07T16:09:20.552Z,16.15
2019-02-07T16:12:09.925Z,12.68
2019-02-07T16:14:58.991Z,12.60
2019-02-07T16:17:48.517Z,12.40
2019-02-07T16:20:48.445Z,19.98
2019-02-07T16:23:28.021Z,16.32
2019-02-07T16:26:17.252Z,12.65
2019-02-07T16:29:07.027Z,11.80
2019-02-07T16:31:56.410Z,14.10
2019-02-07T16:34:45.920Z,16.55
2019-02-07T16:37:35.289Z,18.00
2019-02-07T16:40:24.875Z,12.65
2019-02-07T16:43:14.143Z,13.32
2019-02-07T16:46:04.731Z,16.93
2019-02-07T16:48:54.316Z,14.65
2019-02-07T16:51:43.344Z,11.73
2019-02-07T16:54:32.886Z,16.52
2019-02-07T16:57:22.221Z,21.23
2019-02-07T17:00:24.846Z,19.30
2019-02-07T17:03:13.970Z,13.88
2019-02-07T17:06:03.435Z,21.17
2019-02-07T17:08:54.137Z,22.27
2019-02-07T17:11:43.320Z,18.62
2019-02-07T17:14:32.509Z,20.08
2019-02-07T17:17:22.000Z,12.63
2019-02-07T17:20:30.364Z,13.68
2019-02-07T17:23:19.547Z,18.17
2019-02-07T17:26:08.545Z,12.23
2019-02-07T17:28:57.778Z,14.45
2019-02-07T17:31:46.730Z,15.23
2019-02-07T17:34:35.873Z,10.88
2019-02-07T17:37:24.874Z,14.43
2019-02-07T17:40:23.201Z,16.95
2019-02-07T17:43:12.315Z,18.82
2019-02-07T17:46:01.151Z,13.65
2019-02-07T17:48:50.350Z,12.85
2019-02-07T17:51:39.274Z,18.35
2019-02-07T17:54:29.227Z,16.00
2019-02-07T17:57:18.906Z,21.57
2019-02-07T18:00:22.988Z,17.35
2019-02-07T18:03:12.742Z,14.28
2019-02-07T18:06:01.374Z,18.95
2019-02-07T18:08:51.010Z,25.27
2019-02-07T18:11:39.827Z,13.58
2019-02-07T18:14:29.336Z,13.83
2019-02-07T18:17:18.592Z,9.60
2019-02-07T18:20:17.910Z,16.67
2019-02-07T18:23:07.073Z,13.45
2019-02-07T18:25:56.126Z,27.98
2019-02-07T18:28:45.316Z,12.75
2019-02-07T18:31:34.680Z,14.95
2019-02-07T18:34:24.166Z,9.98
2019-02-07T18:37:13.520Z,12.45
2019-02-07T18:40:03.099Z,12.03
2019-02-07T18:42:52.593Z,9.05
2019-02-07T18:45:41.946Z,11.48
2019-02-07T18:48:31.113Z,19.17
2019-02-07T18:51:20.445Z,11.22
2019-02-07T18:54:10.934Z,9.65
2019-02-07T18:56:59.616Z,8.65
2019-02-07T18:59:49.016Z,12.93
2019-02-07T19:02:38.023Z,10.95
2019-02-07T19:05:27.142Z,7.33
2019-02-07T19:08:16.293Z,15.88
2019-02-07T19:11:06.261Z,9.23
2019-02-07T19:13:56.284Z,8.18
2019-02-07T19:16:46.561Z,10.93
2019-02-07T19:19:36.252Z,16.00
2019-02-07T19:22:24.785Z,7.75
2019-02-07T19:25:15.431Z,9.33
2019-02-07T19:28:06.458Z,11.28
2019-02-07T19:30:55.684Z,11.30
2019-02-07T19:33:44.594Z,16.17
2019-02-07T19:36:33.419Z,8.55
2019-02-07T19:39:23.181Z,16.37
2019-02-07T19:42:12.224Z,9.05
2019-02-07T19:45:01.424Z,13.00
2019-02-07T19:47:50.834Z,11.28
2019-02-07T19:50:39.553Z,11.25
2019-02-07T19:53:29.094Z,11.60
2019-02-07T19:56:18.544Z,7.75
2019-02-07T19:59:08.186Z,11.18
2019-02-07T20:01:57.264Z,11.65
2019-02-07T20:04:46.918Z,8.30
2019-02-07T20:07:36.236Z,9.95
2019-02-07T20:10:28.934Z,10.23
2019-02-07T20:13:17.600Z,10.65
2019-02-07T20:16:07.316Z,7.00
2019-02-07T20:18:56.525Z,8.00
2019-02-07T20:21:45.288Z,6.35
2019-02-07T20:24:45.664Z,7.28
2019-02-07T20:27:25.520Z,11.53
2019-02-07T20:30:19.726Z,7.08
2019-02-07T20:33:09.804Z,10.53
2019-02-07T20:35:59.126Z,8.60
2019-02-07T20:38:48.146Z,6.83
2019-02-07T20:41:37.434Z,5.60
2019-02-07T20:44:26.512Z,6.87
2019-02-07T20:47:15.646Z,4.35
2019-02-07T20:50:08.264Z,5.85
2019-02-07T20:52:58.746Z,8.90
2019-02-07T20:55:47.898Z,9.18
2019-02-07T20:58:37.016Z,5.47
2019-02-07T21:01:26.434Z,4.55
2019-02-07T21:04:15.909Z,6.08
2019-02-07T21:07:05.186Z,3.98
2019-02-07T21:09:54.564Z,5.78
2019-02-07T21:12:43.771Z,3.00
2019-02-07T21:15:32.984Z,4.50
2019-02-07T21:18:22.134Z,3.17
2019-02-07T21:21:11.522Z,3.65
2019-02-07T21:24:01.524Z,6.85
2019-02-07T21:26:50.686Z,12.65
2019-02-07T21:29:39.833Z,4.78
2019-02-07T21:32:28.999Z,4.35
2019-02-07T21:35:21.239Z,3.20
2019-02-07T21:38:11.047Z,8.75
2019-02-07T21:41:00.446Z,5.67
2019-02-07T21:43:49.713Z,5.53
2019-02-07T21:46:38.435Z,7.55
2019-02-07T21:49:27.566Z,5.90
2019-02-07T21:52:17.170Z,5.65
2019-02-07T21:55:11.174Z,6.17
2019-02-07T21:58:00.489Z,6.60
2019-02-07T22:00:49.800Z,4.92
2019-02-07T22:03:39.137Z,9.40
2019-02-07T22:06:28.653Z,6.10
2019-02-07T22:09:17.921Z,7.97
2019-02-07T22:12:06.979Z,6.30
2019-02-07T22:14:56.961Z,8.03
2019-02-07T22:17:46.274Z,9.78
2019-02-07T22:20:35.604Z,6.55
2019-02-07T22:23:24.260Z,4.40
2019-02-07T22:26:13.626Z,3.52
2019-02-07T22:29:02.914Z,7.05
2019-02-07T22:31:51.961Z,6.30
2019-02-07T22:34:41.022Z,5.12
2019-02-07T22:37:30.397Z,5.85
2019-02-07T22:40:23.492Z,15.08
2019-02-07T22:43:12.371Z,6.87
2019-02-07T22:46:01.702Z,7.17
2019-02-07T22:48:50.728Z,6.33
2019-02-07T22:51:40.021Z,8.60
2019-02-07T22:54:29.400Z,6.55
2019-02-07T22:57:18.871Z,7.15
2019-02-07T23:00:44.803Z,9.00
2019-02-07T23:03:34.330Z,7.47
2019-02-07T23:06:23.538Z,8.03
2019-02-07T23:09:14.530Z,7.00
2019-02-07T23:12:03.716Z,10.55
2019-02-07T23:14:52.998Z,6.97
2019-02-07T23:17:42.980Z,10.55
2019-02-07T23:20:32.345Z,6.80
2019-02-07T23:23:21.932Z,4.47
2019-02-07T23:26:10.579Z,13.05
2019-02-07T23:28:59.673Z,5.05
2019-02-07T23:31:49.421Z,6.75
2019-02-07T23:34:38.407Z,4.97
2019-02-07T23:37:27.038Z,5.70
2019-02-07T23:40:22.459Z,8.33
2019-02-07T23:43:11.418Z,4.25
2019-02-07T23:46:00.584Z,6.33
2019-02-07T23:48:49.493Z,7.72
2019-02-07T23:51:38.715Z,6.28
2019-02-07T23:54:27.751Z,15.75
2019-02-07T23:57:16.946Z,7.50
